createdAt,value
2023-04-09T00:01:25.989Z,64.67
2023-04-09T00:03:53.407Z,64.63
2023-04-09T00:06:21.198Z,64.82
2023-04-09T00:08:48.162Z,64.83
2023-04-09T00:11:22.862Z,64.97
2023-04-09T00:13:51.259Z,65.10
2023-04-09T00:16:18.559Z,65.27
2023-04-09T00:18:46.759Z,65.46
2023-04-09T00:21:14.107Z,65.70
2023-04-09T00:23:43.825Z,65.87
2023-04-09T00:26:11.150Z,65.85
2023-04-09T00:28:38.146Z,66.08
2023-04-09T00:31:06.745Z,66.23
2023-04-09T00:33:34.159Z,66.32
2023-04-09T00:36:02.065Z,66.59
2023-04-09T00:38:29.305Z,66.56
2023-04-09T00:40:56.365Z,66.77
2023-04-09T00:43:27.191Z,66.89
2023-04-09T00:45:54.447Z,66.84
2023-04-09T00:48:22.960Z,66.78
2023-04-09T00:50:50.311Z,66.67
2023-04-09T00:53:17.807Z,66.56
2023-04-09T00:55:46.393Z,66.56
2023-04-09T00:58:16.271Z,66.69
2023-04-09T01:00:43.474Z,66.67
2023-04-09T01:03:11.443Z,66.70
2023-04-09T01:06:02.237Z,66.77
2023-04-09T01:08:49.744Z,66.88
2023-04-09T01:11:43.854Z,67.01
2023-04-09T01:14:28.288Z,67.15
2023-04-09T01:16:57.891Z,67.40
2023-04-09T01:19:34.805Z,67.53
2023-04-09T01:22:01.997Z,67.57
2023-04-09T01:24:55.666Z,67.54
2023-04-09T01:27:35.060Z,67.65
2023-04-09T01:30:02.717Z,67.71
2023-04-09T01:32:33.784Z,67.80
2023-04-09T01:35:01.894Z,67.87
2023-04-09T01:37:29.316Z,67.89
2023-04-09T01:39:57.603Z,67.89
2023-04-09T01:42:24.670Z,67.95
2023-04-09T01:44:52.767Z,68.01
2023-04-09T01:47:19.917Z,68.16
2023-04-09T01:49:46.876Z,68.23
2023-04-09T01:52:14.113Z,68.21
2023-04-09T01:54:41.232Z,68.30
2023-04-09T01:57:08.625Z,68.34
2023-04-09T01:59:37.010Z,68.59
2023-04-09T02:02:12.507Z,68.52
2023-04-09T02:04:41.908Z,68.62
2023-04-09T02:07:27.824Z,68.73
2023-04-09T02:09:55.607Z,68.74
2023-04-09T02:12:23.385Z,68.90
2023-04-09T02:14:53.796Z,68.80
2023-04-09T02:17:21.739Z,68.95
2023-04-09T02:19:49.015Z,69.11
2023-04-09T02:22:16.843Z,69.21
2023-04-09T02:24:44.744Z,69.25
2023-04-09T02:27:12.222Z,69.29
2023-04-09T02:29:40.481Z,69.38
2023-04-09T02:32:07.678Z,69.54
2023-04-09T02:34:36.333Z,69.54
2023-04-09T02:37:03.760Z,69.54
2023-04-09T02:39:31.215Z,69.62
2023-04-09T02:41:58.675Z,69.66
2023-04-09T02:44:27.783Z,69.69
2023-04-09T02:46:56.065Z,69.69
2023-04-09T02:49:23.828Z,69.73
2023-04-09T02:51:51.491Z,69.83
2023-04-09T02:54:21.003Z,69.80
2023-04-09T02:56:48.515Z,69.86
2023-04-09T02:59:15.481Z,69.76
2023-04-09T03:01:46.380Z,69.64
2023-04-09T03:04:13.350Z,69.58
2023-04-09T03:06:40.356Z,69.71
2023-04-09T03:09:10.834Z,69.59
2023-04-09T03:11:37.946Z,69.60
2023-04-09T03:14:04.827Z,69.66
2023-04-09T03:16:32.973Z,69.74
2023-04-09T03:18:59.807Z,69.72
2023-04-09T03:21:27.562Z,69.56
2023-04-09T03:23:54.753Z,69.66
2023-04-09T03:26:22.039Z,69.72
2023-04-09T03:28:49.838Z,69.53
2023-04-09T03:31:17.119Z,69.62
2023-04-09T03:33:44.225Z,69.74
2023-04-09T03:36:11.651Z,69.68
2023-04-09T03:38:53.232Z,69.69
2023-04-09T03:41:26.533Z,69.73
2023-04-09T03:43:54.125Z,69.78
2023-04-09T03:46:25.241Z,69.81
2023-04-09T03:48:52.530Z,69.71
2023-04-09T03:51:20.850Z,69.57
2023-04-09T03:53:56.797Z,69.69
2023-04-09T03:56:24.298Z,69.51
2023-04-09T03:58:51.647Z,69.48
2023-04-09T04:01:22.772Z,69.31
2023-04-09T04:03:54.345Z,69.25
2023-04-09T04:06:26.175Z,69.22
2023-04-09T04:09:13.600Z,69.20
2023-04-09T04:11:48.092Z,69.10
2023-04-09T04:14:16.720Z,69.01
2023-04-09T04:16:45.954Z,68.97
2023-04-09T04:19:16.167Z,68.83
2023-04-09T04:21:46.041Z,68.65
2023-04-09T04:24:14.522Z,68.43
2023-04-09T04:26:42.832Z,67.98
2023-04-09T04:29:10.583Z,67.79
2023-04-09T04:32:08.554Z,67.73
2023-04-09T04:34:37.835Z,67.52
2023-04-09T04:37:15.455Z,67.27
2023-04-09T04:39:45.306Z,67.08
2023-04-09T04:42:15.476Z,66.85
2023-04-09T04:44:43.324Z,66.78
2023-04-09T04:47:33.082Z,66.48
2023-04-09T04:50:01.359Z,66.10
2023-04-09T04:52:30.201Z,65.97
2023-04-09T04:54:57.209Z,66.09
2023-04-09T04:57:24.344Z,66.24
2023-04-09T04:59:51.566Z,66.03
2023-04-09T05:02:18.882Z,65.99
2023-04-09T05:04:56.168Z,65.80
2023-04-09T05:07:31.651Z,65.46
2023-04-09T05:09:58.714Z,65.46
2023-04-09T05:12:36.542Z,65.40
2023-04-09T05:15:05.209Z,65.52
2023-04-09T05:17:32.608Z,65.34
2023-04-09T05:20:00.184Z,64.75
2023-04-09T05:22:33.844Z,63.53
2023-04-09T05:25:04.357Z,62.70
2023-04-09T05:27:31.909Z,62.54
2023-04-09T05:30:01.606Z,61.90
2023-04-09T05:32:30.828Z,61.57
2023-04-09T05:34:57.808Z,60.76
2023-04-09T05:37:27.020Z,59.48
2023-04-09T05:39:55.029Z,59.23
2023-04-09T05:42:22.330Z,58.81
2023-04-09T05:45:10.001Z,57.96
2023-04-09T05:47:45.285Z,57.01
2023-04-09T05:50:19.392Z,56.37
2023-04-09T05:52:50.930Z,56.06
2023-04-09T05:55:18.085Z,56.07
2023-04-09T05:57:48.732Z,56.10
2023-04-09T06:00:16.735Z,55.43
2023-04-09T06:02:45.071Z,54.64
2023-04-09T06:05:12.050Z,53.74
2023-04-09T06:07:44.127Z,52.85
2023-04-09T06:10:11.080Z,52.49
2023-04-09T06:12:39.475Z,51.98
2023-04-09T06:15:07.633Z,51.84
2023-04-09T06:17:38.254Z,51.27
2023-04-09T06:20:06.846Z,51.06
2023-04-09T06:22:41.491Z,50.37
2023-04-09T06:25:08.571Z,49.82
2023-04-09T06:27:35.740Z,49.89
2023-04-09T06:30:08.405Z,49.62
2023-04-09T06:32:46.837Z,49.07
2023-04-09T06:35:18.206Z,49.16
2023-04-09T06:37:45.099Z,48.52
2023-04-09T06:40:12.473Z,47.92
2023-04-09T06:42:39.951Z,48.11
2023-04-09T06:45:17.175Z,48.35
2023-04-09T06:47:44.416Z,47.86
2023-04-09T06:50:11.593Z,47.84
2023-04-09T06:52:38.938Z,48.30
2023-04-09T06:55:06.534Z,48.60
2023-04-09T06:57:34.534Z,48.73
2023-04-09T07:00:01.512Z,48.70
2023-04-09T07:02:31.499Z,49.67
2023-04-09T07:04:58.571Z,50.79
2023-04-09T07:07:26.016Z,50.94
2023-04-09T07:09:53.559Z,50.59
2023-04-09T07:12:33.769Z,49.73
2023-04-09T07:15:10.273Z,49.27
2023-04-09T07:17:37.414Z,49.23
2023-04-09T07:20:06.669Z,48.62
2023-04-09T07:22:33.732Z,48.54
2023-04-09T07:25:04.016Z,48.63
2023-04-09T07:27:31.108Z,48.44
2023-04-09T07:29:58.704Z,48.50
2023-04-09T07:32:27.034Z,49.02
2023-04-09T07:34:55.051Z,49.14
2023-04-09T07:37:22.020Z,48.68
2023-04-09T07:39:51.588Z,48.03
2023-04-09T07:42:18.465Z,48.36
2023-04-09T07:44:45.329Z,48.73
2023-04-09T07:47:18.917Z,49.78
2023-04-09T07:49:47.936Z,50.38
2023-04-09T07:52:14.882Z,49.77
2023-04-09T07:54:48.182Z,48.89
2023-04-09T07:57:15.581Z,48.29
2023-04-09T07:59:42.807Z,47.64
2023-04-09T08:02:15.380Z,47.48
2023-04-09T08:04:43.110Z,47.08
2023-04-09T08:07:10.091Z,47.52
2023-04-09T08:09:40.505Z,47.83
2023-04-09T08:12:07.479Z,47.94
2023-04-09T08:14:35.161Z,47.49
2023-04-09T08:17:02.454Z,46.82
2023-04-09T08:19:30.584Z,46.32
2023-04-09T08:21:58.921Z,46.44
2023-04-09T08:24:26.775Z,46.87
2023-04-09T08:26:54.564Z,47.40
2023-04-09T08:29:25.034Z,48.13
2023-04-09T08:31:53.545Z,48.35
2023-04-09T08:34:22.183Z,47.80
2023-04-09T08:36:51.867Z,46.95
2023-04-09T08:39:20.874Z,46.87
2023-04-09T08:41:48.512Z,45.87
2023-04-09T08:44:15.570Z,45.45
2023-04-09T08:46:43.776Z,45.70
2023-04-09T08:49:13.522Z,46.03
2023-04-09T08:51:44.566Z,46.33
2023-04-09T08:54:11.581Z,45.06
2023-04-09T08:56:38.785Z,45.21
2023-04-09T08:59:05.672Z,44.82
2023-04-09T09:01:34.277Z,44.86
2023-04-09T09:04:05.603Z,45.92
2023-04-09T09:06:38.668Z,46.87
2023-04-09T09:09:16.374Z,46.98
2023-04-09T09:11:47.154Z,47.08
2023-04-09T09:14:18.819Z,46.95
2023-04-09T09:17:03.845Z,46.82
2023-04-09T09:21:27.796Z,46.48
2023-04-09T09:23:55.356Z,46.53
2023-04-09T09:26:30.438Z,46.81
2023-04-09T09:29:01.496Z,46.63
2023-04-09T09:31:28.941Z,45.90
2023-04-09T09:34:08.865Z,46.10
2023-04-09T09:36:37.336Z,45.71
2023-04-09T09:39:10.368Z,45.87
2023-04-09T09:41:46.480Z,46.27
2023-04-09T09:44:30.182Z,45.73
2023-04-09T09:46:57.789Z,45.59
2023-04-09T09:49:24.962Z,45.76
2023-04-09T09:51:52.141Z,45.65
2023-04-09T09:54:19.748Z,45.90
2023-04-09T09:56:46.882Z,45.48
2023-04-09T09:59:22.084Z,45.46
2023-04-09T10:01:53.877Z,45.58
2023-04-09T10:04:21.593Z,45.64
2023-04-09T10:06:48.775Z,45.29
2023-04-09T10:09:16.853Z,45.43
2023-04-09T10:11:45.680Z,44.72
2023-04-09T10:14:18.652Z,44.54
2023-04-09T10:16:46.681Z,44.99
2023-04-09T10:19:15.413Z,45.23
2023-04-09T10:21:48.074Z,45.12
2023-04-09T10:24:19.620Z,44.23
2023-04-09T10:26:47.369Z,43.70
2023-04-09T10:29:16.922Z,43.72
2023-04-09T10:31:56.060Z,43.55
2023-04-09T10:34:27.248Z,44.14
2023-04-09T10:36:58.595Z,43.69
2023-04-09T10:39:30.004Z,43.62
2023-04-09T10:42:04.536Z,43.75
2023-04-09T10:44:36.353Z,43.33
2023-04-09T10:47:08.529Z,43.37
2023-04-09T10:49:42.102Z,43.09
2023-04-09T10:52:12.244Z,43.18
2023-04-09T10:54:46.573Z,43.17
2023-04-09T10:57:21.204Z,42.98
2023-04-09T10:59:50.804Z,42.56
2023-04-09T11:02:40.751Z,42.97
2023-04-09T11:05:29.685Z,42.87
2023-04-09T11:08:03.370Z,42.77
2023-04-09T11:10:41.277Z,42.51
2023-04-09T11:13:18.678Z,42.64
2023-04-09T11:15:47.539Z,42.48
2023-04-09T11:18:28.052Z,41.99
2023-04-09T11:21:16.593Z,42.09
2023-04-09T11:23:53.918Z,41.72
2023-04-09T11:26:28.801Z,42.08
2023-04-09T11:28:58.297Z,42.49
2023-04-09T11:31:29.179Z,41.89
2023-04-09T11:34:17.349Z,41.76
2023-04-09T11:36:49.918Z,41.89
2023-04-09T11:39:17.445Z,42.20
2023-04-09T11:41:52.279Z,41.92
2023-04-09T11:44:24.716Z,41.63
2023-04-09T11:46:58.385Z,41.41
2023-04-09T11:49:25.997Z,41.66
2023-04-09T11:51:53.561Z,41.65
2023-04-09T11:54:21.138Z,41.64
2023-04-09T11:57:07.948Z,42.08
2023-04-09T11:59:39.085Z,41.76
2023-04-09T12:02:26.198Z,40.94
2023-04-09T12:05:02.904Z,40.50
2023-04-09T12:07:34.120Z,40.80
2023-04-09T12:10:08.302Z,41.37
2023-04-09T12:12:47.679Z,41.34
2023-04-09T12:15:21.884Z,41.78
2023-04-09T12:17:51.229Z,41.96
2023-04-09T12:20:29.243Z,41.90
2023-04-09T12:23:06.064Z,41.72
2023-04-09T12:25:41.361Z,41.85
2023-04-09T12:28:11.014Z,42.15
2023-04-09T12:30:39.911Z,42.23
2023-04-09T12:33:10.970Z,42.07
2023-04-09T12:35:39.628Z,41.74
2023-04-09T12:38:06.901Z,41.34
2023-04-09T12:40:35.775Z,41.19
2023-04-09T12:43:03.361Z,41.59
2023-04-09T12:45:32.221Z,41.57
2023-04-09T12:47:59.810Z,41.28
2023-04-09T12:50:30.309Z,41.14
2023-04-09T12:52:57.536Z,41.09
2023-04-09T12:55:24.755Z,40.78
2023-04-09T12:57:52.087Z,40.79
2023-04-09T13:00:24.968Z,40.60
2023-04-09T13:02:53.097Z,41.02
2023-04-09T13:05:23.034Z,41.01
2023-04-09T13:07:50.305Z,40.84
2023-04-09T13:10:17.463Z,40.98
2023-04-09T13:12:44.938Z,41.15
2023-04-09T13:15:13.275Z,40.86
2023-04-09T13:17:42.216Z,40.93
2023-04-09T13:20:11.048Z,40.91
2023-04-09T13:22:43.159Z,41.39
2023-04-09T13:25:10.822Z,40.77
2023-04-09T13:27:47.050Z,40.35
2023-04-09T13:30:16.290Z,40.11
2023-04-09T13:33:01.683Z,40.40
2023-04-09T13:35:41.170Z,40.52
2023-04-09T13:38:13.237Z,40.83
2023-04-09T13:40:40.840Z,40.99
2023-04-09T13:43:08.550Z,41.48
2023-04-09T13:45:37.673Z,41.65
2023-04-09T13:48:06.531Z,41.69
2023-04-09T13:50:37.486Z,41.40
2023-04-09T13:53:05.590Z,41.47
2023-04-09T13:55:37.598Z,41.62
2023-04-09T13:58:04.683Z,41.63
2023-04-09T14:00:34.837Z,41.39
2023-04-09T14:03:04.328Z,41.49
2023-04-09T14:05:32.982Z,41.53
2023-04-09T14:08:01.603Z,41.66
2023-04-09T14:10:31.568Z,41.72
2023-04-09T14:12:59.014Z,41.49
2023-04-09T14:15:28.073Z,41.50
2023-04-09T14:17:55.723Z,41.54
2023-04-09T14:20:24.671Z,41.79
2023-04-09T14:22:53.352Z,41.94
2023-04-09T14:25:23.279Z,41.94
2023-04-09T14:27:50.206Z,42.21
2023-04-09T14:30:20.912Z,42.33
2023-04-09T14:33:06.702Z,42.64
2023-04-09T14:35:41.413Z,42.31
2023-04-09T14:38:14.234Z,42.07
2023-04-09T14:40:52.647Z,41.82
2023-04-09T14:43:19.577Z,41.99
2023-04-09T14:45:46.826Z,41.79
2023-04-09T14:48:13.857Z,41.90
2023-04-09T14:50:43.130Z,42.08
2023-04-09T14:53:10.308Z,42.04
2023-04-09T14:55:57.111Z,41.91
2023-04-09T14:58:28.408Z,42.31
2023-04-09T15:01:04.768Z,42.45
2023-04-09T15:03:32.809Z,42.54
2023-04-09T15:06:12.575Z,42.42
2023-04-09T15:08:39.688Z,42.22
2023-04-09T15:11:08.685Z,42.32
2023-04-09T15:13:44.538Z,42.42
2023-04-09T15:16:21.353Z,42.48
2023-04-09T15:18:51.419Z,42.72
2023-04-09T15:21:18.775Z,42.92
2023-04-09T15:23:46.350Z,42.92
2023-04-09T15:26:14.208Z,42.81
2023-04-09T15:28:48.604Z,42.84
2023-04-09T15:31:16.415Z,42.90
2023-04-09T15:33:56.447Z,42.90
2023-04-09T15:36:32.538Z,43.11
2023-04-09T15:39:06.965Z,43.08
2023-04-09T15:41:34.314Z,43.12
2023-04-09T15:44:12.596Z,43.50
2023-04-09T15:46:57.065Z,43.96
2023-04-09T15:49:27.508Z,43.85
2023-04-09T15:52:00.983Z,44.28
2023-04-09T15:54:28.996Z,44.34
2023-04-09T15:57:04.726Z,44.50
2023-04-09T15:59:34.142Z,44.39
2023-04-09T16:02:04.722Z,44.15
2023-04-09T16:04:32.467Z,44.16
2023-04-09T16:07:05.430Z,44.23
2023-04-09T16:09:52.236Z,44.20
2023-04-09T16:12:25.764Z,44.46
2023-04-09T16:15:07.573Z,44.55
2023-04-09T16:17:40.795Z,44.75
2023-04-09T16:20:09.265Z,44.91
2023-04-09T16:22:44.575Z,44.96
2023-04-09T16:25:12.076Z,45.24
2023-04-09T16:27:43.620Z,45.29
2023-04-09T16:30:12.165Z,45.46
2023-04-09T16:32:47.214Z,45.50
2023-04-09T16:35:15.131Z,45.84
2023-04-09T16:37:42.016Z,45.89
2023-04-09T16:40:09.075Z,45.95
2023-04-09T16:42:37.015Z,46.15
2023-04-09T16:45:04.951Z,45.94
2023-04-09T16:47:32.772Z,46.03
2023-04-09T16:50:01.585Z,45.91
2023-04-09T16:52:43.399Z,45.75
2023-04-09T16:55:14.294Z,45.72
2023-04-09T16:57:41.729Z,45.59
2023-04-09T17:00:16.897Z,45.80
2023-04-09T17:02:46.393Z,45.92
2023-04-09T17:05:16.041Z,46.09
2023-04-09T17:07:46.626Z,46.13
2023-04-09T17:10:22.937Z,46.25
2023-04-09T17:12:51.940Z,46.19
2023-04-09T17:15:21.597Z,46.32
2023-04-09T17:17:53.729Z,46.30
2023-04-09T17:20:25.377Z,46.56
2023-04-09T17:23:00.973Z,46.61
2023-04-09T17:25:31.782Z,46.71
2023-04-09T17:28:02.004Z,46.73
2023-04-09T17:30:33.365Z,46.72
2023-04-09T17:33:06.556Z,46.76
2023-04-09T17:35:53.753Z,46.79
2023-04-09T17:38:27.131Z,46.84
2023-04-09T17:40:54.237Z,46.96
2023-04-09T17:43:23.466Z,47.07
2023-04-09T17:45:52.691Z,47.23
2023-04-09T17:48:22.867Z,47.30
2023-04-09T17:50:58.975Z,47.28
2023-04-09T17:53:26.547Z,47.13
2023-04-09T17:55:56.430Z,47.23
2023-04-09T17:58:27.144Z,47.62
2023-04-09T18:00:55.753Z,47.73
2023-04-09T18:03:23.167Z,47.88
2023-04-09T18:05:50.817Z,48.04
2023-04-09T18:08:18.440Z,48.24
2023-04-09T18:11:01.570Z,48.21
2023-04-09T18:13:38.606Z,48.13
2023-04-09T18:16:12.458Z,47.96
2023-04-09T18:18:45.409Z,48.19
2023-04-09T18:21:17.852Z,48.41
2023-04-09T18:23:47.474Z,48.72
2023-04-09T18:26:15.906Z,48.73
2023-04-09T18:28:45.123Z,48.92
2023-04-09T18:31:32.023Z,49.19
2023-04-09T18:33:59.109Z,49.23
2023-04-09T18:36:28.327Z,49.33
2023-04-09T18:38:56.220Z,49.37
2023-04-09T18:41:24.655Z,49.31
2023-04-09T18:43:52.977Z,49.38
2023-04-09T18:46:21.036Z,49.43
2023-04-09T18:48:51.185Z,49.52
2023-04-09T18:51:23.966Z,49.61
2023-04-09T18:53:53.117Z,49.79
2023-04-09T18:56:22.380Z,49.94
2023-04-09T18:58:49.335Z,50.02
2023-04-09T19:01:17.631Z,50.14
2023-04-09T19:03:44.994Z,50.16
2023-04-09T19:06:14.620Z,50.16
2023-04-09T19:08:41.788Z,50.31
2023-04-09T19:11:08.863Z,50.37
2023-04-09T19:13:37.109Z,50.46
2023-04-09T19:16:04.832Z,50.75
2023-04-09T19:18:39.529Z,50.85
2023-04-09T19:21:08.260Z,51.02
2023-04-09T19:23:35.349Z,51.29
2023-04-09T19:26:05.620Z,51.51
2023-04-09T19:28:32.770Z,51.77
2023-04-09T19:31:02.091Z,51.95
2023-04-09T19:33:31.875Z,52.10
2023-04-09T19:35:59.431Z,52.27
2023-04-09T19:38:28.847Z,52.50
2023-04-09T19:40:55.900Z,52.60
2023-04-09T19:43:24.611Z,52.74
2023-04-09T19:45:52.001Z,52.72
2023-04-09T19:48:19.049Z,52.83
2023-04-09T19:50:46.844Z,52.82
2023-04-09T19:53:14.543Z,52.96
2023-04-09T19:55:42.168Z,53.12
2023-04-09T19:58:09.145Z,53.31
2023-04-09T20:00:36.378Z,53.46
2023-04-09T20:03:07.922Z,53.57
2023-04-09T20:05:35.952Z,53.77
2023-04-09T20:08:03.180Z,53.87
2023-04-09T20:10:39.822Z,53.89
2023-04-09T20:13:08.947Z,54.07
2023-04-09T20:15:36.023Z,54.19
2023-04-09T20:18:10.355Z,54.46
2023-04-09T20:20:38.589Z,54.44
2023-04-09T20:23:05.820Z,54.48
2023-04-09T20:25:36.820Z,54.41
2023-04-09T20:28:05.067Z,54.53
2023-04-09T20:30:32.277Z,54.68
2023-04-09T20:32:59.741Z,54.66
2023-04-09T20:35:27.389Z,54.65
2023-04-09T20:37:55.236Z,54.64
2023-04-09T20:40:22.614Z,54.83
2023-04-09T20:42:50.596Z,54.77
2023-04-09T20:45:20.804Z,54.79
2023-04-09T20:47:49.613Z,54.81
2023-04-09T20:50:16.612Z,54.90
2023-04-09T20:52:43.589Z,54.90
2023-04-09T20:55:10.937Z,54.98
2023-04-09T20:57:37.846Z,54.92
2023-04-09T21:00:05.519Z,55.04
2023-04-09T21:02:34.320Z,55.05
2023-04-09T21:07:42.859Z,55.38
2023-04-09T21:10:09.972Z,55.48
2023-04-09T21:12:45.487Z,55.81
2023-04-09T21:15:12.420Z,55.91
2023-04-09T21:17:39.568Z,56.13
2023-04-09T21:20:12.008Z,56.24
2023-04-09T21:22:39.020Z,56.21
2023-04-09T21:25:06.500Z,56.15
2023-04-09T21:27:33.717Z,56.22
2023-04-09T21:30:01.204Z,56.43
2023-04-09T21:32:28.785Z,56.50
2023-04-09T21:34:55.868Z,56.72
2023-04-09T21:38:27.736Z,57.22
2023-04-09T21:40:54.780Z,57.33
2023-04-09T21:43:22.232Z,57.19
2023-04-09T21:45:49.204Z,57.32
2023-04-09T21:48:16.742Z,57.17
2023-04-09T21:50:43.749Z,56.95
2023-04-09T21:53:15.648Z,56.87
2023-04-09T21:55:43.227Z,57.11
2023-04-09T21:58:12.151Z,56.96
2023-04-09T22:00:39.915Z,57.03
2023-04-09T22:03:07.168Z,56.96
2023-04-09T22:05:35.491Z,57.12
2023-04-09T22:08:03.769Z,57.36
2023-04-09T22:10:30.905Z,57.88
2023-04-09T22:13:09.631Z,57.94
2023-04-09T22:15:37.882Z,58.06
2023-04-09T22:18:05.085Z,58.23
2023-04-09T22:20:36.605Z,58.73
2023-04-09T22:23:05.390Z,58.39
2023-04-09T22:25:35.209Z,58.11
2023-04-09T22:28:11.735Z,57.80
2023-04-09T22:30:41.277Z,57.61
2023-04-09T22:33:09.372Z,57.24
2023-04-09T22:35:36.660Z,57.15
2023-04-09T22:38:04.336Z,57.06
2023-04-09T22:40:31.415Z,57.17
2023-04-09T22:42:58.666Z,57.27
2023-04-09T22:45:28.088Z,57.25
2023-04-09T22:47:55.903Z,57.37
2023-04-09T22:50:23.650Z,57.42
2023-04-09T22:52:51.696Z,57.32
2023-04-09T22:55:19.603Z,57.27
2023-04-09T22:57:47.291Z,57.40
2023-04-09T23:00:15.445Z,57.57
2023-04-09T23:02:43.345Z,57.68
2023-04-09T23:05:11.448Z,57.54
2023-04-09T23:07:38.967Z,57.37
2023-04-09T23:10:07.170Z,57.34
2023-04-09T23:12:34.706Z,57.44
2023-04-09T23:15:02.126Z,57.51
2023-04-09T23:17:29.518Z,57.66
2023-04-09T23:19:58.125Z,57.60
2023-04-09T23:22:26.408Z,57.52
2023-04-09T23:24:53.612Z,57.43
2023-04-09T23:27:21.348Z,57.54
2023-04-09T23:29:48.532Z,57.66
2023-04-09T23:32:16.007Z,57.44
2023-04-09T23:34:43.573Z,57.59
2023-04-09T23:37:10.973Z,57.66
2023-04-09T23:39:46.925Z,57.59
2023-04-09T23:42:14.722Z,57.71
2023-04-09T23:44:44.265Z,57.59
2023-04-09T23:47:12.250Z,57.93
2023-04-09T23:49:41.080Z,57.93
2023-04-09T23:52:08.847Z,57.94
2023-04-09T23:54:36.109Z,58.13
2023-04-09T23:57:04.170Z,58.25
2023-04-09T23:59:35.587Z,58.47
